createdAt,value
2019-04-11T00:00:01.301Z,30.37
2019-04-11T00:02:33.021Z,28.90
2019-04-11T00:05:04.354Z,28.77
2019-04-11T00:07:36.294Z,25.03
2019-04-11T00:10:08.194Z,30.30
2019-04-11T00:12:38.906Z,32.20
2019-04-11T00:15:09.316Z,31.03
2019-04-11T00:17:41.830Z,28.03
2019-04-11T00:20:13.789Z,32.30
2019-04-11T00:22:44.438Z,30.90
2019-04-11T00:25:15.658Z,29.73
2019-04-11T00:27:46.196Z,33.03
2019-04-11T00:30:17.810Z,33.47
2019-04-11T00:32:49.687Z,33.27
2019-04-11T00:35:20.288Z,32.20
2019-04-11T00:37:53.640Z,32.73
2019-04-11T00:40:24.874Z,33.90
2019-04-11T00:42:55.428Z,36.88
2019-04-11T00:45:25.826Z,39.33
2019-04-11T00:47:59.535Z,40.33
2019-04-11T00:50:30.164Z,42.07
2019-04-11T00:53:01.479Z,44.37
2019-04-11T00:55:32.493Z,42.63
2019-04-11T00:58:03.489Z,47.70
2019-04-11T01:00:36.514Z,48.83
2019-04-11T01:03:06.525Z,46.33
2019-04-11T01:05:37.381Z,55.50
2019-04-11T01:08:08.301Z,54.93
2019-04-11T01:10:39.722Z,62.20
2019-04-11T01:13:11.180Z,62.13
2019-04-11T01:15:43.473Z,55.97
2019-04-11T01:18:14.009Z,61.87
2019-04-11T01:20:44.481Z,53.77
2019-04-11T01:23:15.153Z,57.33
2019-04-11T01:25:46.456Z,55.17
2019-04-11T01:28:17.026Z,56.00
2019-04-11T01:30:49.247Z,54.23
2019-04-11T01:33:20.678Z,51.10
2019-04-11T01:35:51.594Z,55.23
2019-04-11T01:38:25.538Z,64.93
2019-04-11T01:40:56.221Z,66.37
2019-04-11T01:43:26.715Z,65.27
2019-04-11T01:45:57.987Z,59.33
2019-04-11T01:48:42.453Z,61.07
2019-04-11T01:51:13.746Z,57.57
2019-04-11T01:53:45.245Z,58.27
2019-04-11T01:56:16.810Z,52.40
2019-04-11T01:58:47.641Z,55.03
2019-04-11T02:01:34.877Z,57.55
2019-04-11T02:04:07.739Z,49.97
2019-04-11T02:06:38.431Z,48.27
2019-04-11T02:09:13.757Z,55.03
2019-04-11T02:11:45.736Z,52.80
2019-04-11T02:14:19.243Z,46.77
2019-04-11T02:16:50.626Z,46.27
2019-04-11T02:19:20.707Z,54.47
2019-04-11T02:21:53.710Z,52.27
2019-04-11T02:24:41.739Z,54.60
2019-04-11T02:27:19.034Z,49.45
2019-04-11T02:29:50.836Z,49.13
2019-04-11T02:32:24.422Z,47.20
2019-04-11T02:34:57.118Z,51.50
2019-04-11T02:37:26.597Z,47.20
2019-04-11T02:39:58.050Z,44.80
2019-04-11T02:42:30.812Z,45.80
2019-04-11T02:45:16.452Z,46.83
2019-04-11T02:47:37.237Z,52.63
2019-04-11T02:50:08.307Z,46.17
2019-04-11T02:52:40.235Z,51.93
2019-04-11T02:55:13.009Z,48.47
2019-04-11T02:57:43.175Z,38.83
2019-04-11T03:00:15.848Z,43.27
2019-04-11T03:02:47.897Z,45.20
2019-04-11T03:05:20.711Z,39.50
2019-04-11T03:07:51.554Z,41.80
2019-04-11T03:10:22.475Z,31.10
2019-04-11T03:12:54.451Z,36.87
2019-04-11T03:15:41.452Z,32.93
2019-04-11T03:18:01.973Z,33.10
2019-04-11T03:20:38.301Z,34.37
2019-04-11T03:23:05.808Z,33.40
2019-04-11T03:25:34.157Z,36.73
2019-04-11T03:28:13.775Z,40.20
2019-04-11T03:31:01.311Z,34.67
2019-04-11T03:36:38.027Z,32.73
2019-04-11T03:38:38.467Z,35.67
2019-04-11T03:41:05.971Z,36.50
2019-04-11T03:43:34.600Z,39.23
2019-04-11T03:46:15.976Z,38.43
2019-04-11T03:48:40.137Z,39.33
2019-04-11T03:50:59.391Z,37.13
2019-04-11T03:53:32.454Z,38.03
2019-04-11T03:56:04.403Z,41.80
2019-04-11T03:58:39.526Z,37.37
2019-04-11T04:01:13.999Z,39.30
2019-04-11T04:03:46.641Z,34.53
2019-04-11T04:06:19.129Z,36.13
2019-04-11T04:09:00.594Z,32.20
2019-04-11T04:11:32.070Z,37.07
2019-04-11T04:14:08.190Z,32.57
2019-04-11T04:16:49.904Z,38.80
2019-04-11T04:19:24.844Z,34.63
2019-04-11T04:22:16.072Z,33.37
2019-04-11T04:24:55.727Z,42.50
2019-04-11T04:27:32.458Z,27.63
2019-04-11T04:30:06.154Z,33.80
2019-04-11T04:32:38.496Z,42.45
2019-04-11T04:35:14.755Z,38.50
2019-04-11T04:37:43.910Z,35.40
2019-04-11T04:40:31.434Z,37.17
2019-04-11T04:42:51.030Z,34.43
2019-04-11T04:45:23.708Z,34.23
2019-04-11T04:48:01.422Z,36.17
2019-04-11T04:50:28.255Z,35.27
2019-04-11T04:53:00.939Z,34.70
2019-04-11T04:55:30.789Z,36.10
2019-04-11T04:58:02.039Z,32.17
2019-04-11T05:00:37.652Z,35.97
2019-04-11T05:03:19.889Z,32.57
2019-04-11T05:05:50.991Z,37.03
2019-04-11T05:08:22.888Z,37.70
2019-04-11T05:10:53.612Z,35.43
2019-04-11T05:13:24.538Z,37.17
2019-04-11T05:16:06.958Z,36.57
2019-04-11T05:18:27.951Z,36.37
2019-04-11T05:20:59.007Z,36.77
2019-04-11T05:23:29.821Z,33.77
2019-04-11T05:26:01.642Z,34.03
2019-04-11T05:28:32.297Z,36.70
2019-04-11T05:31:02.722Z,41.77
2019-04-11T05:33:33.255Z,48.47
2019-04-11T05:36:04.034Z,36.67
2019-04-11T05:38:34.518Z,41.53
2019-04-11T05:41:09.604Z,39.17
2019-04-11T05:43:38.629Z,38.23
2019-04-11T05:46:25.103Z,31.33
2019-04-11T05:49:00.612Z,28.93
2019-04-11T05:51:39.197Z,27.93
2019-04-11T05:54:07.328Z,29.03
2019-04-11T05:56:37.501Z,36.57
2019-04-11T05:59:17.197Z,30.33
2019-04-11T06:01:53.019Z,40.40
2019-04-11T06:04:34.443Z,32.77
2019-04-11T06:07:08.529Z,34.13
2019-04-11T06:09:41.604Z,34.93
2019-04-11T06:12:23.352Z,29.37
2019-04-11T06:15:01.988Z,36.30
2019-04-11T06:17:32.930Z,32.57
2019-04-11T06:20:06.149Z,31.80
2019-04-11T06:22:40.086Z,28.47
2019-04-11T06:25:25.836Z,31.57
2019-04-11T06:27:57.999Z,24.27
2019-04-11T06:30:33.117Z,29.73
2019-04-11T06:33:20.621Z,33.67
2019-04-11T06:36:09.616Z,31.40
2019-04-11T06:38:49.137Z,36.07
2019-04-11T06:41:38.860Z,37.77
2019-04-11T06:44:26.362Z,36.73
2019-04-11T06:47:14.716Z,38.70
2019-04-11T06:49:47.011Z,37.67
2019-04-11T06:52:17.568Z,36.48
2019-04-11T06:55:06.658Z,38.50
2019-04-11T06:57:51.259Z,33.37
2019-04-11T07:00:25.367Z,36.40
2019-04-11T07:02:57.395Z,33.47
2019-04-11T07:05:31.288Z,37.07
2019-04-11T07:08:03.360Z,34.67
2019-04-11T07:10:46.732Z,34.60
2019-04-11T07:13:18.893Z,25.50
2019-04-11T07:15:52.855Z,28.53
2019-04-11T07:18:40.129Z,26.10
2019-04-11T07:21:11.674Z,24.43
2019-04-11T07:23:59.784Z,23.30
2019-04-11T07:26:41.508Z,27.47
2019-04-11T07:29:29.911Z,25.25
2019-04-11T07:32:09.436Z,24.67
2019-04-11T07:34:58.020Z,23.77
2019-04-11T07:37:32.776Z,22.83
2019-04-11T07:40:15.576Z,26.47
2019-04-11T07:43:05.107Z,25.23
2019-04-11T07:45:41.773Z,19.30
2019-04-11T07:48:19.841Z,15.50
2019-04-11T07:50:54.133Z,20.00
2019-04-11T07:53:26.245Z,16.87
2019-04-11T07:55:57.807Z,15.37
2019-04-11T07:58:33.229Z,17.07
2019-04-11T08:01:08.263Z,18.73
2019-04-11T08:03:59.304Z,22.83
2019-04-11T08:06:47.954Z,17.73
2019-04-11T08:09:33.438Z,18.70
2019-04-11T08:12:06.545Z,17.93
2019-04-11T08:14:48.837Z,21.07
2019-04-11T08:17:33.276Z,19.60
2019-04-11T08:20:15.168Z,16.07
2019-04-11T08:22:47.599Z,22.07
2019-04-11T08:25:23.018Z,15.90
2019-04-11T08:28:00.748Z,17.48
2019-04-11T08:30:35.158Z,18.47
2019-04-11T08:33:07.416Z,17.95
2019-04-11T08:35:40.264Z,15.43
2019-04-11T08:38:22.414Z,15.88
2019-04-11T08:40:58.811Z,14.68
2019-04-11T08:43:37.313Z,16.05
2019-04-11T08:46:12.874Z,15.50
2019-04-11T08:48:54.046Z,16.05
2019-04-11T08:51:27.337Z,15.00
2019-04-11T08:54:09.126Z,14.87
2019-04-11T08:56:41.218Z,12.10
2019-04-11T08:59:27.266Z,14.73
2019-04-11T09:01:57.823Z,14.13
2019-04-11T09:04:46.143Z,10.58
2019-04-11T09:07:21.412Z,11.73
2019-04-11T09:10:09.909Z,14.58
2019-04-11T09:12:42.692Z,13.00
2019-04-11T09:15:22.336Z,17.52
2019-04-11T09:18:02.132Z,11.57
2019-04-11T09:20:47.746Z,12.50
2019-04-11T09:23:19.544Z,11.73
2019-04-11T09:25:57.551Z,12.47
2019-04-11T09:28:29.519Z,10.90
2019-04-11T09:31:19.558Z,10.25
2019-04-11T09:33:57.703Z,13.08
2019-04-11T09:36:36.799Z,8.75
2019-04-11T09:39:21.191Z,15.80
2019-04-11T09:42:10.456Z,9.35
2019-04-11T09:44:49.345Z,12.35
2019-04-11T09:47:22.145Z,9.88
2019-04-11T09:49:57.970Z,11.88
2019-04-11T09:52:31.066Z,10.23
2019-04-11T09:55:15.006Z,10.78
2019-04-11T09:57:48.161Z,12.58
2019-04-11T10:00:36.954Z,10.45
2019-04-11T10:03:19.530Z,10.45
2019-04-11T10:05:52.246Z,10.03
2019-04-11T10:08:27.333Z,9.85
2019-04-11T10:11:11.381Z,14.13
2019-04-11T10:14:01.751Z,10.95
2019-04-11T10:16:36.980Z,11.48
2019-04-11T10:19:18.008Z,8.20
2019-04-11T10:22:05.065Z,7.37
2019-04-11T10:24:46.375Z,9.60
2019-04-11T10:27:27.283Z,10.18
2019-04-11T10:30:15.658Z,10.18
2019-04-11T10:32:47.793Z,12.28
2019-04-11T10:35:20.208Z,9.95
2019-04-11T10:37:52.075Z,9.28
2019-04-11T10:40:42.254Z,15.38
2019-04-11T10:43:12.988Z,41.18
2019-04-11T10:45:53.818Z,16.73
2019-04-11T10:48:34.624Z,8.78
2019-04-11T10:51:00.391Z,9.53
2019-04-11T10:53:31.193Z,8.40
2019-04-11T10:56:19.657Z,13.13
2019-04-11T10:58:53.150Z,8.80
2019-04-11T11:01:42.306Z,10.35
2019-04-11T11:04:18.030Z,11.43
2019-04-11T11:06:51.712Z,11.18
2019-04-11T11:09:35.444Z,8.85
2019-04-11T11:12:12.718Z,7.67
2019-04-11T11:14:45.052Z,10.55
2019-04-11T11:17:44.240Z,12.35
2019-04-11T11:20:19.582Z,11.08
2019-04-11T11:22:44.458Z,14.25
2019-04-11T11:25:18.147Z,10.05
2019-04-11T11:27:50.272Z,9.43
2019-04-11T11:30:29.573Z,8.55
2019-04-11T11:33:00.346Z,8.05
2019-04-11T11:35:40.078Z,6.53
2019-04-11T11:38:09.357Z,10.55
2019-04-11T11:40:54.212Z,9.43
2019-04-11T11:43:32.975Z,9.95
2019-04-11T11:46:05.229Z,12.10
2019-04-11T11:48:37.439Z,8.68
2019-04-11T11:51:15.226Z,8.18
2019-04-11T11:53:51.073Z,10.80
2019-04-11T11:56:22.036Z,5.42
2019-04-11T11:58:59.324Z,6.60
2019-04-11T12:01:30.208Z,4.62
2019-04-11T12:04:08.662Z,6.42
2019-04-11T12:06:40.910Z,6.90
2019-04-11T12:09:16.399Z,11.83
2019-04-11T12:11:54.453Z,8.63
2019-04-11T12:14:45.020Z,7.75
2019-04-11T12:17:23.189Z,6.40
2019-04-11T12:20:05.448Z,10.00
2019-04-11T12:22:32.718Z,9.08
2019-04-11T12:25:10.644Z,14.85
2019-04-11T12:27:49.973Z,10.48
2019-04-11T12:30:35.726Z,4.62
2019-04-11T12:33:08.936Z,7.55
2019-04-11T12:35:44.332Z,8.05
2019-04-11T12:38:24.458Z,7.62
2019-04-11T12:40:55.888Z,7.75
2019-04-11T12:43:27.928Z,6.55
2019-04-11T12:46:16.413Z,11.43
2019-04-11T12:48:46.836Z,11.48
2019-04-11T12:51:27.693Z,10.32
2019-04-11T12:53:59.668Z,9.90
2019-04-11T12:56:37.593Z,9.30
2019-04-11T12:59:10.008Z,9.30
2019-04-11T13:01:47.860Z,12.58
2019-04-11T13:04:19.859Z,10.72
2019-04-11T13:07:00.987Z,8.83
2019-04-11T13:09:49.816Z,14.98
2019-04-11T13:12:35.739Z,12.70
2019-04-11T13:15:09.265Z,10.88
2019-04-11T13:17:59.291Z,10.80
2019-04-11T13:20:32.700Z,10.65
2019-04-11T13:23:19.929Z,9.30
2019-04-11T13:26:08.359Z,12.20
2019-04-11T13:28:42.997Z,16.42
2019-04-11T13:31:31.232Z,10.70
2019-04-11T13:34:11.207Z,14.58
2019-04-11T13:36:58.039Z,16.20
2019-04-11T13:39:29.037Z,12.13
2019-04-11T13:42:04.080Z,11.55
2019-04-11T13:44:41.660Z,9.68
2019-04-11T13:47:25.580Z,10.03
2019-04-11T13:49:58.945Z,10.78
2019-04-11T13:52:30.909Z,11.63
2019-04-11T13:55:06.478Z,8.30
2019-04-11T13:57:59.186Z,11.80
2019-04-11T14:00:40.142Z,14.38
2019-04-11T14:03:29.573Z,10.58
2019-04-11T14:06:01.772Z,9.60
2019-04-11T14:08:37.063Z,12.53
2019-04-11T14:11:11.670Z,15.08
2019-04-11T14:13:43.920Z,9.33
2019-04-11T14:16:18.868Z,18.87
2019-04-11T14:18:51.011Z,7.53
2019-04-11T14:21:31.780Z,11.63
2019-04-11T14:24:11.600Z,10.75
2019-04-11T14:26:57.239Z,9.85
2019-04-11T14:29:29.379Z,10.82
2019-04-11T14:32:01.437Z,11.25
2019-04-11T14:34:39.334Z,13.15
2019-04-11T14:37:11.500Z,8.10
2019-04-11T14:39:46.160Z,11.35
2019-04-11T14:42:36.181Z,13.22
2019-04-11T14:45:11.801Z,12.15
2019-04-11T14:48:00.108Z,14.78
2019-04-11T14:50:40.553Z,11.10
2019-04-11T14:53:22.377Z,15.28
2019-04-11T14:55:54.532Z,20.20
2019-04-11T14:58:35.919Z,10.13
2019-04-11T15:01:07.990Z,13.55
2019-04-11T15:04:02.217Z,12.30
2019-04-11T15:06:55.487Z,13.53
2019-04-11T15:13:05.561Z,12.68
2019-04-11T15:15:48.470Z,12.50
2019-04-11T15:18:19.868Z,10.25
2019-04-11T15:20:56.498Z,10.60
2019-04-11T15:23:41.049Z,12.13
2019-04-11T15:26:21.819Z,15.80
2019-04-11T15:28:54.106Z,15.93
2019-04-11T15:31:39.468Z,12.28
2019-04-11T15:34:24.082Z,13.68
2019-04-11T15:37:11.159Z,13.78
2019-04-11T15:39:59.946Z,12.45
2019-04-11T15:42:47.085Z,13.72
2019-04-11T15:45:25.398Z,15.83
2019-04-11T15:47:57.654Z,17.90
2019-04-11T15:50:46.129Z,23.40
2019-04-11T15:53:18.279Z,21.90
2019-04-11T15:56:07.833Z,24.92
2019-04-11T15:58:52.973Z,21.02
2019-04-11T16:01:42.794Z,18.10
2019-04-11T16:04:18.043Z,22.65
2019-04-11T16:07:08.670Z,23.05
2019-04-11T16:09:42.158Z,23.27
2019-04-11T16:12:16.379Z,24.43
2019-04-11T16:14:48.851Z,27.27
2019-04-11T16:17:38.736Z,33.18
2019-04-11T16:20:37.874Z,23.10
2019-04-11T16:23:40.775Z,27.43
2019-04-11T16:29:32.802Z,29.63
2019-04-11T16:32:15.263Z,32.58
2019-04-11T16:34:55.754Z,31.07
2019-04-11T16:37:48.449Z,27.13
2019-04-11T16:40:53.403Z,29.40
2019-04-11T16:43:25.152Z,30.03
2019-04-11T16:46:16.156Z,32.23
2019-04-11T16:48:47.936Z,29.80
2019-04-11T16:51:30.152Z,28.30
2019-04-11T16:53:50.593Z,32.83
2019-04-11T16:56:21.311Z,34.43
2019-04-11T16:58:55.057Z,32.37
2019-04-11T17:04:39.404Z,40.33
2019-04-11T17:07:31.486Z,55.30
2019-04-11T17:10:07.987Z,47.23
2019-04-11T17:12:38.952Z,38.40
2019-04-11T17:15:12.602Z,34.97
2019-04-11T17:17:48.346Z,41.23
2019-04-11T17:20:21.655Z,42.23
2019-04-11T18:02:25.807Z,68.47
2019-04-11T18:04:59.748Z,66.17
2019-04-11T18:08:12.827Z,58.70
2019-04-11T18:10:45.541Z,61.47
2019-04-11T18:13:18.843Z,60.03
2019-04-11T18:15:49.511Z,64.47
2019-04-11T18:18:21.631Z,57.07
2019-04-11T18:20:55.678Z,55.03
2019-04-11T18:23:37.447Z,57.33
2019-04-11T18:26:09.794Z,55.33
2019-04-11T18:28:43.220Z,50.90
2019-04-11T18:35:01.776Z,58.93
2019-04-11T18:58:17.873Z,76.13
2019-04-11T19:00:54.634Z,75.93
2019-04-11T19:03:35.999Z,68.67
2019-04-11T19:06:03.916Z,66.07
2019-04-11T19:08:43.117Z,65.93
2019-04-11T19:11:43.941Z,60.17
2019-04-11T19:14:17.299Z,65.10
2019-04-11T19:16:56.986Z,56.93
2019-04-11T19:19:32.643Z,56.50
2019-04-11T19:22:05.570Z,66.07
2019-04-11T19:24:36.417Z,60.23
2019-04-11T19:27:08.137Z,64.40
2019-04-11T19:29:39.050Z,60.83
2019-04-11T19:32:17.387Z,69.97
2019-04-11T19:34:50.911Z,74.17
2019-04-11T19:37:27.033Z,54.87
2019-04-11T19:39:57.818Z,51.90
2019-04-11T19:42:33.008Z,54.20
2019-04-11T19:45:20.165Z,56.57
2019-04-11T19:47:52.253Z,64.83
2019-04-11T19:50:26.773Z,60.27
2019-04-11T19:52:57.924Z,63.08
2019-04-11T20:03:31.692Z,61.00
2019-04-11T20:26:19.974Z,74.35
2019-04-11T20:29:15.968Z,61.93
2019-04-11T20:31:48.042Z,70.47
2019-04-11T20:34:27.501Z,56.50
2019-04-11T20:36:50.517Z,58.50
2019-04-11T20:39:20.934Z,54.43
2019-04-11T20:41:53.464Z,49.07
2019-04-11T20:44:27.125Z,49.50
2019-04-11T20:46:55.600Z,41.93
2019-04-11T20:49:26.058Z,41.27
2019-04-11T20:51:56.432Z,52.87
2019-04-11T20:54:41.027Z,40.90
2019-04-11T20:57:12.676Z,50.77
2019-04-11T20:59:43.328Z,47.87
2019-04-11T21:02:16.542Z,49.80
2019-04-11T21:04:46.966Z,49.90
2019-04-11T21:07:17.520Z,54.97
2019-04-11T21:09:47.901Z,59.23
2019-04-11T21:12:18.248Z,48.33
2019-04-11T21:14:48.791Z,45.10
2019-04-11T21:17:19.195Z,49.43
2019-04-11T21:19:50.928Z,44.20
2019-04-11T21:22:23.945Z,37.13
2019-04-11T21:24:53.961Z,42.20
2019-04-11T21:27:24.364Z,53.33
2019-04-11T21:29:55.066Z,34.00
2019-04-11T21:32:25.500Z,31.80
2019-04-11T21:34:55.898Z,39.50
2019-04-11T21:37:26.351Z,30.57
2019-04-11T21:39:56.875Z,31.53
2019-04-11T21:42:27.263Z,33.70
2019-04-11T21:44:57.863Z,37.57
2019-04-11T21:47:31.333Z,58.97
2019-04-11T21:50:09.414Z,30.20
2019-04-11T21:52:43.435Z,28.33
2019-04-11T21:55:15.046Z,31.50
2019-04-11T21:57:48.303Z,34.90
2019-04-11T22:00:22.154Z,37.43
2019-04-11T22:02:51.997Z,43.80
2019-04-11T22:05:23.674Z,70.23
2019-04-11T22:07:55.581Z,50.90
2019-04-11T22:10:26.531Z,51.07
2019-04-11T22:12:57.047Z,37.23
2019-04-11T22:15:28.794Z,39.80
2019-04-11T22:17:59.246Z,34.23
2019-04-11T22:20:31.312Z,34.20
2019-04-11T22:23:01.720Z,37.27
2019-04-11T22:25:33.591Z,32.63
2019-04-11T22:28:03.977Z,27.60
2019-04-11T22:30:34.566Z,32.87
2019-04-11T22:33:06.907Z,28.40
2019-04-11T22:35:37.758Z,25.97
2019-04-11T22:38:08.208Z,38.73
2019-04-11T22:40:38.683Z,33.57
2019-04-11T22:43:22.539Z,37.50
2019-04-11T22:45:42.231Z,41.93
2019-04-11T22:48:12.736Z,40.40
2019-04-11T22:50:43.231Z,39.17
2019-04-11T22:53:13.639Z,32.63
2019-04-11T22:55:44.095Z,34.57
2019-04-11T22:58:14.779Z,38.87
2019-04-11T23:00:45.970Z,34.97
2019-04-11T23:03:18.306Z,36.90
2019-04-11T23:05:48.731Z,37.30
2019-04-11T23:08:19.897Z,34.20
2019-04-11T23:10:50.481Z,36.40
2019-04-11T23:13:20.971Z,40.00
2019-04-11T23:15:51.538Z,28.43
2019-04-11T23:18:22.027Z,23.37
2019-04-11T23:20:52.418Z,24.63
2019-04-11T23:23:23.026Z,23.40
2019-04-11T23:25:53.457Z,27.00
2019-04-11T23:28:23.984Z,21.90
2019-04-11T23:30:54.451Z,22.27
2019-04-11T23:33:24.921Z,24.98
2019-04-11T23:35:55.421Z,25.90
2019-04-11T23:38:25.933Z,23.03
2019-04-11T23:40:56.521Z,27.50
2019-04-11T23:43:27.195Z,28.30
2019-04-11T23:45:57.680Z,27.87
2019-04-11T23:48:28.228Z,25.97
2019-04-11T23:50:58.705Z,34.40
2019-04-11T23:53:29.308Z,28.30
2019-04-11T23:56:00.732Z,32.70
2019-04-11T23:58:32.126Z,29.93
